Bovee, South Dakota
Current Conditions -  °F | °C
As of 6:53 PM on Saturday 25 Oct 2014 (Local Time) from KMHE Reporting Station
Clear Clear  
Wind Chill: 58°   Ceiling: Unl
Heat Index: 58°   Visibility: 10mi
Dew Point: 34°   Wind: 3mph
Humidity: 41%   Direction: 60°ENE
Pressure: 30.05"   Gusts: NA
Location:  43.2601°N, 98.6864°W
Report Text: KMHE 252353Z AUTO 06003KT 10SM CLR 14/01 A3005 RMK AO2 SLP181 T01440011 10206 20144 58013 $
Loading
Personal Weather Stations






























Interactive Weather Map
Tropical Storm Tracking
New forecast layout! Learn more

10-Day Weather Forecast

Advertisements
Track Severe Weather on mobile